Time;durP1;ratioP1;P1;durP2;ratioP2;P2;SDS_P1;SDS_P2;PMS_P1;PMS_P2;Temp;Humidity;BMP_temperature;BMP_pressure;BME280_temperature;BME280_humidity;BME280_pressure;Samples;Min_cycle;Max_cycle;Signal;HPM_P1;HPM_P2
2021/10/08 00:01:38;;;;;;;8.73;3.70;;;;;;;16.31;45.58;100921.03;4361113;32;33563;-85
2021/10/08 00:04:06;;;;;;;10.68;3.03;;;;;;;16.34;45.45;100921.78;4360486;32;32847;-86
2021/10/08 00:06:35;;;;;;;9.77;3.33;;;;;;;16.27;45.61;100924.69;4360584;32;33179;-86
2021/10/08 00:09:03;;;;;;;7.05;2.83;;;;;;;16.10;45.85;100918.25;4360837;32;33926;-86
2021/10/08 00:11:34;;;;;;;8.77;3.55;;;;;;;16.35;45.23;100928.78;4337798;32;33593;-85
2021/10/08 00:14:02;;;;;;;9.40;3.15;;;;;;;16.23;45.68;100923.09;4362087;32;33169;-85
2021/10/08 00:16:30;;;;;;;9.93;2.90;;;;;;;16.12;45.77;100928.72;4361256;32;33686;-86
2021/10/08 00:18:58;;;;;;;8.55;3.35;;;;;;;16.01;46.06;100932.56;4361504;32;33337;-85
2021/10/08 00:21:28;;;;;;;7.32;3.28;;;;;;;16.20;45.66;100932.78;4361532;32;34131;-84
2021/10/08 00:23:57;;;;;;;8.95;3.10;;;;;;;16.02;46.03;100936.94;4348492;32;33347;-87
2021/10/08 00:26:25;;;;;;;8.95;2.78;;;;;;;15.94;46.19;100936.34;4360997;32;33080;-87
2021/10/08 00:28:53;;;;;;;10.32;3.10;;;;;;;15.87;46.21;100942.69;4360733;32;33034;-87
2021/10/08 00:31:21;;;;;;;7.40;3.20;;;;;;;15.97;45.97;100938.00;4360600;32;33601;-85
2021/10/08 00:33:49;;;;;;;9.25;3.28;;;;;;;15.93;46.11;100936.38;4360634;32;33641;-85
2021/10/08 00:36:18;;;;;;;9.15;3.40;;;;;;;15.82;46.33;100942.88;4360660;32;32650;-86
2021/10/08 00:38:45;;;;;;;10.13;3.12;;;;;;;15.99;45.66;100936.16;4348030;32;33521;-86
2021/10/08 00:41:14;;;;;;;9.30;3.33;;;;;;;16.13;45.49;100941.81;4348072;32;35301;-85
2021/10/08 00:43:41;;;;;;;8.13;3.00;;;;;;;15.81;46.17;100937.69;4348063;32;33215;-85
2021/10/08 00:46:09;;;;;;;8.15;2.90;;;;;;;15.79;46.11;100940.28;4347676;32;33139;-85
2021/10/08 00:48:37;;;;;;;6.57;2.95;;;;;;;16.11;45.17;100948.03;4347791;32;32665;-86
2021/10/08 00:51:05;;;;;;;10.80;3.22;;;;;;;15.97;45.48;100938.84;4347857;32;33928;-86
2021/10/08 00:53:33;;;;;;;6.62;3.08;;;;;;;15.76;45.90;100945.66;4335940;32;32699;-86
2021/10/08 00:56:03;;;;;;;8.82;3.00;;;;;;;15.68;46.14;100943.28;4360389;32;33701;-85
2021/10/08 00:58:31;;;;;;;8.48;3.12;;;;;;;15.82;45.66;100944.63;4347973;32;33377;-86
2021/10/08 01:00:58;;;;;;;10.00;3.15;;;;;;;15.59;46.34;100953.25;4360320;32;34068;-84
2021/10/08 01:03:27;;;;;;;6.47;2.50;;;;;;;15.84;45.83;100953.31;4347502;32;34437;-85
2021/10/08 01:05:54;;;;;;;7.87;2.80;;;;;;;15.82;45.84;100952.50;4359889;32;33578;-86
2021/10/08 01:08:22;;;;;;;6.60;3.00;;;;;;;15.85;45.73;100953.28;4359812;32;32688;-86
2021/10/08 01:10:50;;;;;;;8.38;3.47;;;;;;;15.82;45.66;100955.13;4348000;32;34919;-86
2021/10/08 01:13:18;;;;;;;10.50;3.15;;;;;;;15.91;45.29;100960.06;4347159;32;33092;-86
2021/10/08 01:15:47;;;;;;;6.82;2.72;;;;;;;16.01;45.15;100966.75;4347673;32;33707;-87
2021/10/08 01:18:15;;;;;;;8.80;2.87;;;;;;;16.10;44.91;100962.09;4347554;32;34605;-86
2021/10/08 01:20:45;;;;;;;7.65;2.97;;;;;;;15.99;45.01;100965.97;4348162;32;33373;-85
2021/10/08 01:23:13;;;;;;;7.45;2.47;;;;;;;15.91;44.85;100961.84;4347512;32;33509;-86
2021/10/08 01:25:41;;;;;;;8.45;3.12;;;;;;;15.55;45.78;100973.50;4359774;32;32235;-86
2021/10/08 01:28:09;;;;;;;5.68;2.33;;;;;;;15.73;45.03;100969.41;4346817;32;32858;-86
2021/10/08 01:30:37;;;;;;;8.60;2.95;;;;;;;15.74;44.82;100965.00;4347567;32;34452;-86
2021/10/08 01:33:05;;;;;;;10.77;2.62;;;;;;;15.84;44.74;100964.69;4347552;32;33713;-85
2021/10/08 01:35:34;;;;;;;9.48;3.35;;;;;;;15.84;44.59;100969.94;4349601;32;33364;-86
2021/10/08 01:38:02;;;;;;;5.30;2.42;;;;;;;15.75;44.44;100966.75;4361891;32;32882;-86
2021/10/08 01:40:34;;;;;;;8.32;2.70;;;;;;;15.71;44.66;100971.22;4355273;32;33314;-85
2021/10/08 01:43:02;;;;;;;6.28;2.83;;;;;;;15.55;44.98;100968.22;4373908;32;34395;-87
2021/10/08 01:45:30;;;;;;;8.75;3.55;;;;;;;15.59;45.11;100969.84;4350710;32;33923;-84
2021/10/08 01:47:59;;;;;;;8.95;2.70;;;;;;;15.85;44.43;100973.44;4362023;32;35185;-86
2021/10/08 01:50:30;;;;;;;6.93;3.03;;;;;;;15.95;44.10;100974.84;4350271;32;34503;-85
2021/10/08 01:52:59;;;;;;;7.20;2.95;;;;;;;15.80;44.34;100975.31;4337571;32;33060;-85
2021/10/08 01:55:27;;;;;;;5.22;2.85;;;;;;;15.66;44.64;100974.00;4361118;32;32875;-86
2021/10/08 01:57:55;;;;;;;7.82;2.87;;;;;;;15.60;44.79;100982.09;4349391;32;32775;-87
2021/10/08 02:00:30;;;;;;;7.85;2.47;;;;;;;15.30;45.38;100990.03;4350236;32;33285;-86
2021/10/08 02:02:59;;;;;;;9.25;3.40;;;;;;;15.47;45.03;100986.00;4349113;32;34568;-85
2021/10/08 02:05:27;;;;;;;5.78;2.70;;;;;;;15.74;44.35;100988.66;4361023;32;32639;-87
2021/10/08 02:07:55;;;;;;;9.30;3.15;;;;;;;15.27;45.35;100994.50;4349311;32;33542;-85
2021/10/08 02:10:26;;;;;;;8.23;3.00;;;;;;;15.20;45.20;100993.84;4324836;32;34133;-86
2021/10/08 02:12:53;;;;;;;6.65;2.80;;;;;;;15.25;45.08;100993.69;4348802;32;34039;-87
2021/10/08 02:15:22;;;;;;;6.03;2.80;;;;;;;15.32;45.06;100990.84;4361616;32;33679;-86
2021/10/08 02:17:51;;;;;;;7.03;2.97;;;;;;;15.02;45.58;100989.97;4349646;32;34063;-86
2021/10/08 02:20:19;;;;;;;7.87;2.90;;;;;;;15.05;45.31;100991.66;4360885;32;33478;-85
2021/10/08 02:22:49;;;;;;;8.00;3.10;;;;;;;15.16;44.83;100994.84;4349149;32;33331;-85
2021/10/08 02:25:19;;;;;;;7.15;3.33;;;;;;;14.94;45.37;100994.59;4361560;32;32334;-85
2021/10/08 02:27:50;;;;;;;6.80;2.92;;;;;;;15.07;45.01;101000.34;4337597;32;32782;-85
2021/10/08 02:30:18;;;;;;;7.40;3.35;;;;;;;15.22;44.63;101005.12;4348962;32;33205;-86
2021/10/08 02:32:46;;;;;;;9.60;3.67;;;;;;;14.85;45.43;100991.34;4336489;32;33529;-85
2021/10/08 02:35:15;;;;;;;12.52;4.10;;;;;;;14.74;45.56;101001.28;4361498;32;33880;-86
2021/10/08 02:37:43;;;;;;;10.32;3.72;;;;;;;14.81;45.47;101004.59;4349216;32;34145;-85
2021/10/08 02:40:11;;;;;;;9.18;3.45;;;;;;;15.00;45.08;101002.31;4348479;32;33421;-86
2021/10/08 02:42:39;;;;;;;8.23;3.50;;;;;;;15.17;44.35;101002.66;4348769;32;33342;-86
2021/10/08 02:45:08;;;;;;;9.85;3.53;;;;;;;15.24;44.07;101000.72;4360361;32;32622;-86
2021/10/08 02:47:36;;;;;;;9.25;3.78;;;;;;;14.96;44.67;101013.81;4337019;32;33356;-85
2021/10/08 02:50:05;;;;;;;13.88;4.78;;;;;;;14.76;44.57;101002.09;4361232;32;33594;-85
2021/10/08 02:52:33;;;;;;;7.90;3.55;;;;;;;15.32;43.71;101008.38;4335855;32;33837;-86
2021/10/08 02:55:06;;;;;;;10.20;3.58;;;;;;;15.24;43.90;101016.47;4362702;32;34220;-86
2021/10/08 02:57:39;;;;;;;11.50;3.35;;;;;;;15.19;44.18;101015.75;4339658;32;34681;-88
2021/10/08 03:00:10;;;;;;;9.20;3.60;;;;;;;14.84;44.97;101013.22;4362033;32;34144;-85
2021/10/08 03:02:38;;;;;;;12.13;3.97;;;;;;;15.18;44.11;101016.63;4362061;32;34447;-85
2021/10/08 03:05:07;;;;;;;7.62;3.35;;;;;;;15.21;43.95;101011.31;4349794;32;33053;-85
2021/10/08 03:07:35;;;;;;;9.52;3.53;;;;;;;14.85;44.53;101016.69;4337741;32;34358;-86
2021/10/08 03:10:05;;;;;;;9.88;3.83;;;;;;;14.90;44.60;101013.97;4361889;32;34107;-85
2021/10/08 03:12:33;;;;;;;11.18;4.05;;;;;;;14.58;45.46;101021.78;4324112;32;34273;-86
2021/10/08 03:15:03;;;;;;;9.80;3.97;;;;;;;14.77;44.95;101022.19;4361184;32;34623;-86
2021/10/08 03:17:31;;;;;;;10.85;4.15;;;;;;;15.03;44.30;101023.19;4360735;32;33449;-87
2021/10/08 03:20:00;;;;;;;11.95;3.87;;;;;;;14.88;44.29;101029.75;4348522;32;33515;-86
2021/10/08 03:22:29;;;;;;;11.73;4.03;;;;;;;14.85;44.26;101019.31;4348330;32;33203;-86
2021/10/08 03:24:58;;;;;;;11.07;3.65;;;;;;;14.90;44.33;101038.44;4360967;32;34174;-85
2021/10/08 03:27:25;;;;;;;10.73;4.00;;;;;;;14.90;43.99;101035.81;4373266;32;34704;-87
2021/10/08 03:29:54;;;;;;;15.50;4.75;;;;;;;14.40;45.10;101045.88;4348141;32;32844;-85
2021/10/08 03:32:22;;;;;;;10.60;3.65;;;;;;;14.76;44.46;101053.69;4348185;32;33382;-86
2021/10/08 03:34:50;;;;;;;10.98;4.05;;;;;;;14.92;44.00;101047.13;4336672;32;33933;-86
2021/10/08 03:37:21;;;;;;;11.50;4.15;;;;;;;14.94;43.96;101045.31;4349243;32;33423;-87
2021/10/08 03:39:49;;;;;;;11.32;3.80;;;;;;;14.53;44.86;101052.50;4348419;32;33805;-86
2021/10/08 03:42:20;;;;;;;10.38;3.83;;;;;;;14.58;44.73;101055.03;4361002;32;33880;-86
2021/10/08 03:44:57;;;;;;;20.77;5.68;;;;;;;14.43;44.95;101058.94;4349106;32;34252;-86
2021/10/08 03:47:39;;;;;;;9.57;3.67;;;;;;;14.57;44.74;101062.06;4360502;32;34388;-86
2021/10/08 03:50:09;;;;;;;10.60;3.90;;;;;;;14.42;45.06;101062.44;4361436;32;33629;-86
2021/10/08 03:52:38;;;;;;;11.98;4.10;;;;;;;14.67;44.13;101054.81;4361579;32;34675;-86
2021/10/08 03:55:06;;;;;;;13.30;3.65;;;;;;;14.70;43.91;101052.09;4361525;32;33324;-86
2021/10/08 03:57:34;;;;;;;21.70;4.72;;;;;;;14.42;44.60;101057.19;4347837;32;32983;-88
2021/10/08 04:00:04;;;;;;;11.43;5.15;;;;;;;14.60;44.20;101050.59;4361051;32;34620;-87
2021/10/08 04:02:41;;;;;;;9.18;4.10;;;;;;;14.67;43.82;101045.19;4362532;32;35059;-86
2021/10/08 04:05:10;;;;;;;9.10;4.00;;;;;;;14.48;44.32;101047.41;4349517;32;33246;-86
2021/10/08 04:07:39;;;;;;;8.60;3.70;;;;;;;14.81;43.70;101055.31;4349539;32;33604;-87
2021/10/08 04:10:07;;;;;;;11.88;4.12;;;;;;;14.72;44.08;101050.31;4361290;32;34596;-88
2021/10/08 04:12:36;;;;;;;10.48;4.00;;;;;;;14.82;43.90;101056.16;4349380;32;34044;-85
2021/10/08 04:15:04;;;;;;;16.48;4.45;;;;;;;14.63;44.34;101059.28;4361613;32;32374;-85
2021/10/08 04:17:32;;;;;;;14.68;4.75;;;;;;;14.61;44.50;101063.69;4361733;32;34096;-85
2021/10/08 04:20:01;;;;;;;11.68;4.40;;;;;;;14.52;44.76;101064.78;4348847;32;33510;-85
2021/10/08 04:22:30;;;;;;;13.48;4.22;;;;;;;14.34;45.06;101075.75;4348737;32;33227;-85
2021/10/08 04:25:02;;;;;;;;;;;;;;;14.46;44.30;101064.09;4349821;32;32634;-86
2021/10/08 04:27:48;;;;;;;11.50;4.68;;;;;;;14.26;44.58;101075.94;4363843;32;35061;-86
2021/10/08 04:30:16;;;;;;;13.70;5.80;;;;;;;14.15;44.77;101073.56;4361732;32;34877;-86
2021/10/08 04:32:44;;;;;;;11.38;4.65;;;;;;;14.25;44.52;101070.72;4350045;32;35011;-86
2021/10/08 04:35:12;;;;;;;14.90;4.80;;;;;;;14.45;44.25;101060.63;4361410;32;33257;-85
2021/10/08 04:37:42;;;;;;;12.75;4.55;;;;;;;14.60;44.09;101059.34;4349269;32;34120;-85
2021/10/08 04:40:11;;;;;;;12.52;4.68;;;;;;;14.62;44.47;101065.38;4349612;32;32924;-86
2021/10/08 04:42:40;;;;;;;9.00;4.40;;;;;;;14.23;45.51;101065.53;4349422;32;32542;-85
2021/10/08 04:45:10;;;;;;;10.15;4.25;;;;;;;14.50;45.17;101065.72;4349978;32;32947;-86
2021/10/08 04:47:41;;;;;;;9.57;4.10;;;;;;;14.21;46.33;101064.69;4341678;32;34452;-83
2021/10/08 04:50:09;;;;;;;9.05;3.85;;;;;;;13.67;47.88;101068.63;4344233;32;33165;-85
2021/10/08 04:52:39;;;;;;;10.07;4.80;;;;;;;14.10;46.91;101064.97;4356709;32;34091;-85
2021/10/08 04:55:08;;;;;;;9.80;4.50;;;;;;;14.48;45.79;101067.53;4366302;32;34334;-84
2021/10/08 04:57:37;;;;;;;13.60;4.72;;;;;;;14.07;46.93;101072.06;4341011;32;33005;-86
2021/10/08 05:00:09;;;;;;;12.37;4.35;;;;;;;14.09;47.07;101072.88;4350888;32;35916;-84
2021/10/08 05:02:39;;;;;;;10.90;4.50;;;;;;;13.82;46.69;101078.72;4351820;32;33476;-84
2021/10/08 05:05:07;;;;;;;11.40;4.93;;;;;;;14.34;45.44;101083.59;4349692;32;33768;-84
2021/10/08 05:07:36;;;;;;;16.25;5.65;;;;;;;14.10;46.08;101090.31;4360951;32;32898;-84
2021/10/08 05:10:06;;;;;;;9.80;4.35;;;;;;;13.94;46.37;101089.81;4350334;32;33910;-84
2021/10/08 05:12:33;;;;;;;19.73;5.47;;;;;;;14.10;45.92;101085.09;4350963;32;34370;-84
2021/10/08 05:15:03;;;;;;;10.98;4.68;;;;;;;14.16;45.64;101084.91;4351308;32;33194;-84
2021/10/08 05:17:32;;;;;;;11.48;5.37;;;;;;;13.94;46.39;101090.69;4351453;32;34500;-84
2021/10/08 05:20:00;;;;;;;11.45;4.97;;;;;;;14.17;45.65;101098.00;4362935;32;34073;-84
2021/10/08 05:22:33;;;;;;;10.63;4.72;;;;;;;13.94;46.16;101103.78;4354764;32;34105;-84
2021/10/08 05:25:01;;;;;;;16.02;4.65;;;;;;;13.81;46.11;101097.97;4354143;32;33859;-83
2021/10/08 05:27:29;;;;;;;10.77;4.70;;;;;;;14.05;45.55;101107.91;4357540;32;34098;-84
2021/10/08 05:29:57;;;;;;;10.18;4.70;;;;;;;14.33;44.86;101110.72;4350172;32;35300;-84
2021/10/08 05:32:25;;;;;;;12.52;5.00;;;;;;;14.04;45.40;101109.69;4344463;32;33199;-84
2021/10/08 05:34:53;;;;;;;11.63;5.00;;;;;;;14.28;44.93;101113.47;4356108;32;33202;-85
2021/10/08 05:37:25;;;;;;;13.32;5.05;;;;;;;13.88;45.41;101109.19;4372086;32;34682;-84
2021/10/08 05:39:52;;;;;;;15.10;4.82;;;;;;;13.95;45.38;101105.50;4345369;32;34580;-85
2021/10/08 05:42:20;;;;;;;12.18;4.68;;;;;;;14.50;44.39;101113.78;4338757;32;33197;-85
2021/10/08 05:44:49;;;;;;;12.68;4.72;;;;;;;14.82;43.60;101103.38;4347306;32;33552;-84
2021/10/08 05:47:17;;;;;;;9.32;5.07;;;;;;;14.53;43.92;101104.97;4350964;32;33625;-85
2021/10/08 05:49:44;;;;;;;12.98;5.22;;;;;;;14.56;44.09;101112.78;4350773;32;33284;-85
2021/10/08 05:52:12;;;;;;;12.70;4.62;;;;;;;14.65;44.07;101104.69;4360722;32;33884;-84
2021/10/08 05:54:41;;;;;;;12.50;5.03;;;;;;;14.77;43.90;101105.25;4344395;32;32657;-85
2021/10/08 05:57:09;;;;;;;14.57;5.97;;;;;;;14.41;44.39;101100.03;4336385;32;33235;-85
2021/10/08 05:59:37;;;;;;;17.60;6.05;;;;;;;14.51;44.04;101112.03;4338310;32;33332;-84
2021/10/08 06:02:05;;;;;;;10.57;4.75;;;;;;;14.88;43.47;101113.72;4341709;32;33395;-85
2021/10/08 06:04:35;;;;;;;11.88;4.78;;;;;;;14.41;44.29;101108.75;4341314;32;32877;-84
2021/10/08 06:07:03;;;;;;;9.15;5.25;;;;;;;14.51;44.29;101107.63;4337533;32;33084;-87
2021/10/08 06:09:34;;;;;;;13.45;6.45;;;;;;;14.71;44.13;101118.56;4349707;32;34355;-86
2021/10/08 06:12:02;;;;;;;14.55;5.90;;;;;;;15.03;43.23;101112.44;4336008;32;33255;-86
2021/10/08 06:14:31;;;;;;;10.73;4.78;;;;;;;14.77;43.58;101115.75;4337932;32;33722;-86
2021/10/08 06:16:59;;;;;;;20.20;5.32;;;;;;;14.34;44.19;101113.28;4350270;32;33341;-86
2021/10/08 06:19:27;;;;;;;12.98;5.35;;;;;;;14.14;44.37;101126.88;4345340;32;33449;-86
2021/10/08 06:21:55;;;;;;;12.10;6.22;;;;;;;14.32;44.23;101122.13;4348075;32;33934;-85
2021/10/08 06:24:23;;;;;;;19.83;5.18;;;;;;;14.67;43.59;101121.25;4352514;32;33272;-86
2021/10/08 06:26:52;;;;;;;15.30;5.60;;;;;;;14.58;43.63;101126.69;4364808;32;34743;-87
2021/10/08 06:29:21;;;;;;;15.90;5.22;;;;;;;14.72;43.00;101130.75;4352357;32;34232;-86
2021/10/08 06:31:50;;;;;;;12.30;5.47;;;;;;;14.78;42.82;101127.97;4352811;32;33683;-85
2021/10/08 06:34:19;;;;;;;14.23;5.18;;;;;;;14.72;43.10;101139.50;4364667;32;33526;-85
2021/10/08 06:36:48;;;;;;;12.70;5.50;;;;;;;14.69;43.04;101131.69;4328852;32;33925;-85
2021/10/08 06:39:17;;;;;;;12.15;5.40;;;;;;;14.67;43.03;101133.50;4364850;32;34817;-85
2021/10/08 06:41:46;;;;;;;145.38;42.58;;;;;;;14.86;42.39;101133.88;4352796;32;33635;-85
2021/10/08 06:44:16;;;;;;;16.42;5.93;;;;;;;14.89;42.34;101136.44;4352403;32;33231;-85
2021/10/08 06:46:44;;;;;;;15.23;5.72;;;;;;;14.36;43.30;101137.72;4364567;32;34686;-85
2021/10/08 06:49:13;;;;;;;16.98;5.85;;;;;;;14.79;42.75;101130.56;4352708;32;33820;-85
2021/10/08 06:51:40;;;;;;;12.75;5.75;;;;;;;15.08;42.21;101141.19;4338647;32;33248;-86
2021/10/08 06:54:08;;;;;;;15.63;5.18;;;;;;;14.86;42.52;101139.13;4350282;32;32686;-86
2021/10/08 06:56:37;;;;;;;14.52;5.37;;;;;;;14.74;42.82;101142.09;4370490;32;33276;-85
2021/10/08 06:59:05;;;;;;;13.27;5.93;;;;;;;14.86;42.75;101152.25;4349957;32;33152;-84
2021/10/08 07:01:35;;;;;;;14.02;5.35;;;;;;;14.65;43.18;101143.16;4350925;32;34681;-83
2021/10/08 07:04:03;;;;;;;10.23;5.10;;;;;;;14.96;42.58;101142.37;4338111;32;32656;-84
2021/10/08 07:06:32;;;;;;;12.27;5.32;;;;;;;15.23;42.16;101151.25;4325373;32;32510;-85
2021/10/08 07:09:01;;;;;;;13.88;5.55;;;;;;;15.39;41.92;101150.84;4326047;32;33379;-86
2021/10/08 07:11:30;;;;;;;12.27;5.12;;;;;;;15.61;41.44;101144.06;4326913;32;33034;-85
2021/10/08 07:13:58;;;;;;;14.35;5.50;;;;;;;15.62;41.31;101143.16;4363891;32;32474;-85
2021/10/08 07:16:26;;;;;;;15.43;5.35;;;;;;;15.50;41.74;101141.75;4351808;32;31596;-84
2021/10/08 07:18:55;;;;;;;26.25;7.03;;;;;;;15.50;41.50;101148.75;4363654;32;33867;-82
2021/10/08 07:21:23;;;;;;;36.33;20.92;;;;;;;15.56;41.34;101153.84;4362755;32;34236;-83
2021/10/08 07:23:51;;;;;;;23.90;8.43;;;;;;;15.28;42.00;101156.41;4339923;32;32453;-82
2021/10/08 07:26:22;;;;;;;16.25;6.12;;;;;;;15.49;41.61;101152.31;4350371;32;33693;-82
2021/10/08 07:28:49;;;;;;;20.70;11.30;;;;;;;15.54;41.33;101168.75;4349077;32;34159;-82
2021/10/08 07:31:17;;;;;;;11.73;5.32;;;;;;;15.68;40.88;101166.59;4348052;32;33044;-82
2021/10/08 07:33:46;;;;;;;21.12;11.70;;;;;;;15.76;40.41;101166.38;4350682;32;32670;-83
2021/10/08 07:36:14;;;;;;;14.93;6.68;;;;;;;16.07;39.80;101164.62;4360689;32;33637;-81
2021/10/08 07:38:41;;;;;;;30.65;15.35;;;;;;;16.06;39.82;101179.53;4348564;32;34179;-82
2021/10/08 07:41:11;;;;;;;12.45;6.45;;;;;;;16.21;39.19;101172.94;4336458;32;34309;-83
2021/10/08 07:43:40;;;;;;;19.10;6.37;;;;;;;16.25;39.27;101171.94;4350321;32;33591;-84
2021/10/08 07:46:09;;;;;;;14.40;5.75;;;;;;;15.81;39.70;101172.41;4350960;32;33963;-82
2021/10/08 07:48:38;;;;;;;17.15;8.10;;;;;;;15.90;39.39;101183.53;4364009;32;33764;-83
2021/10/08 07:51:06;;;;;;;14.90;6.47;;;;;;;16.20;38.49;101181.72;4363646;32;34243;-83
2021/10/08 07:53:34;;;;;;;18.02;5.57;;;;;;;16.22;38.62;101182.56;4352847;32;32794;-82
2021/10/08 07:56:03;;;;;;;13.32;5.70;;;;;;;16.45;38.13;101180.97;4364992;32;33919;-83
2021/10/08 07:58:30;;;;;;;13.73;6.12;;;;;;;16.67;37.67;101184.59;4352065;32;33499;-85
2021/10/08 08:00:59;;;;;;;15.80;6.15;;;;;;;16.31;38.46;101187.53;4363443;32;33788;-84
2021/10/08 08:03:28;;;;;;;15.18;6.00;;;;;;;16.39;38.28;101181.12;4363195;32;33194;-85
2021/10/08 08:05:56;;;;;;;17.65;6.53;;;;;;;16.51;37.92;101181.63;4350053;32;33043;-84
2021/10/08 08:08:23;;;;;;;16.90;7.32;;;;;;;16.55;38.20;101176.25;4362490;32;34153;-83
2021/10/08 08:10:52;;;;;;;14.13;5.60;;;;;;;16.03;39.10;101185.75;4363089;32;32868;-84
2021/10/08 08:13:20;;;;;;;17.25;6.43;;;;;;;16.15;38.81;101181.88;4362829;32;32445;-82
2021/10/08 08:15:48;;;;;;;14.10;5.80;;;;;;;16.14;38.51;101187.16;4350018;32;32440;-83
2021/10/08 08:18:16;;;;;;;14.87;6.87;;;;;;;16.37;38.30;101175.94;4362539;32;33377;-83
2021/10/08 08:20:44;;;;;;;14.40;5.90;;;;;;;16.23;38.43;101186.03;4349937;32;34031;-84
2021/10/08 08:23:12;;;;;;;14.80;5.93;;;;;;;16.41;38.34;101181.97;4350734;32;34278;-83
2021/10/08 08:25:40;;;;;;;14.40;5.50;;;;;;;16.43;38.32;101182.75;4362761;32;34563;-83
2021/10/08 08:28:08;;;;;;;19.08;6.22;;;;;;;16.43;38.21;101183.59;4362522;32;33815;-83
2021/10/08 08:30:39;;;;;;;13.40;6.35;;;;;;;16.14;38.92;101174.03;4362406;32;34824;-83
2021/10/08 08:33:08;;;;;;;11.85;6.18;;;;;;;16.06;39.25;101183.91;4349869;32;32534;-83
2021/10/08 08:35:37;;;;;;;17.12;6.82;;;;;;;16.15;38.94;101175.75;4362166;32;34391;-84
2021/10/08 08:38:04;;;;;;;15.30;5.65;;;;;;;16.28;38.83;101173.59;4350177;32;33362;-85
2021/10/08 08:40:33;;;;;;;13.45;5.82;;;;;;;16.39;38.50;101176.72;4362454;32;33337;-84
2021/10/08 08:43:01;;;;;;;13.40;5.82;;;;;;;16.45;38.20;101175.69;4337334;32;33935;-84
2021/10/08 08:45:31;;;;;;;18.00;6.60;;;;;;;16.39;38.50;101174.09;4350194;32;32913;-84
2021/10/08 08:48:04;;;;;;;13.38;6.05;;;;;;;16.73;38.07;101162.47;4354817;32;191465;-84
2021/10/08 08:50:35;;;;;;;13.38;6.05;;;;;;;16.51;38.21;101163.19;4349623;32;32819;-84
2021/10/08 08:53:07;;;;;;;13.45;5.65;;;;;;;16.80;38.25;101160.50;4361516;32;32343;-84
2021/10/08 08:55:35;;;;;;;14.23;5.20;;;;;;;17.17;37.68;101164.50;4362075;32;34028;-84
2021/10/08 08:58:03;;;;;;;15.18;5.43;;;;;;;16.84;38.15;101162.94;4349869;32;33734;-83
2021/10/08 09:00:32;;;;;;;12.57;6.00;;;;;;;17.02;38.23;101155.37;4361549;32;34298;-84
2021/10/08 09:03:05;;;;;;;11.15;5.32;;;;;;;17.43;37.48;101158.28;4362235;32;32654;-84
2021/10/08 09:05:35;;;;;;;13.07;5.45;;;;;;;16.93;38.32;101158.34;4361631;32;32864;-85
2021/10/08 09:08:08;;;;;;;13.50;6.12;;;;;;;16.91;38.43;101150.50;4362535;32;33823;-84
2021/10/08 09:10:39;;;;;;;16.55;5.50;;;;;;;17.16;37.83;101158.38;4349916;32;33577;-84
2021/10/08 09:13:07;;;;;;;17.53;5.87;;;;;;;17.19;37.77;101153.00;4349828;32;32061;-84
2021/10/08 09:15:52;;;;;;;13.02;6.10;;;;;;;17.51;36.72;101155.37;4349640;32;32822;-83
2021/10/08 09:18:25;;;;;;;11.48;5.40;;;;;;;17.36;36.84;101154.16;4349473;32;33276;-84
2021/10/08 09:21:21;;;;;;;12.35;5.72;;;;;;;17.37;37.03;101151.44;4361733;32;32893;-84
2021/10/08 09:23:49;;;;;;;13.52;5.60;;;;;;;17.29;37.06;101150.03;4360678;32;34353;-84
2021/10/08 09:26:20;;;;;;;11.90;5.20;;;;;;;17.55;36.79;101148.19;4361904;32;34186;-84
2021/10/08 09:28:57;;;;;;;10.75;5.37;;;;;;;17.70;36.42;101152.91;4361463;32;33124;-84
2021/10/08 09:31:32;;;;;;;15.88;5.43;;;;;;;17.21;37.43;101154.72;4373709;32;34533;-84
2021/10/08 09:34:17;;;;;;;11.98;5.32;;;;;;;17.62;36.82;101145.28;4349452;32;32563;-84
2021/10/08 09:36:49;;;;;;;12.93;6.43;;;;;;;17.52;36.53;101143.91;4349332;32;33124;-84
2021/10/08 09:39:18;;;;;;;11.45;5.78;;;;;;;17.45;36.58;101143.25;4361201;32;34005;-84
2021/10/08 09:41:54;;;;;;;11.88;5.53;;;;;;;17.87;35.89;101150.47;4349618;32;33907;-84
2021/10/08 09:44:23;;;;;;;11.90;6.03;;;;;;;18.06;35.54;101146.28;4349032;32;32915;-83
2021/10/08 09:46:51;;;;;;;18.77;6.10;;;;;;;18.07;35.34;101135.66;4361313;32;33245;-84
2021/10/08 09:49:22;;;;;;;16.08;5.85;;;;;;;18.05;35.43;101137.50;4361735;32;33285;-85
2021/10/08 09:51:50;;;;;;;14.13;5.18;;;;;;;18.03;35.61;101140.19;4361038;32;32783;-83
2021/10/08 09:54:17;;;;;;;14.57;5.57;;;;;;;18.36;35.05;101137.12;4361641;32;33236;-84
2021/10/08 09:56:59;;;;;;;11.60;5.43;;;;;;;18.27;35.15;101140.12;4351154;32;33048;-84
2021/10/08 09:59:38;;;;;;;12.57;5.45;;;;;;;18.53;34.29;101138.19;4363589;32;34117;-83
2021/10/08 10:02:06;;;;;;;13.88;5.53;;;;;;;18.49;34.81;101142.75;4353461;32;33581;-84
2021/10/08 10:04:51;;;;;;;13.25;5.18;;;;;;;18.74;34.30;101130.28;4350979;32;32932;-84
2021/10/08 10:07:26;;;;;;;14.60;5.18;;;;;;;19.11;33.54;101132.19;4350986;32;33829;-84
2021/10/08 10:09:54;;;;;;;10.70;5.18;;;;;;;19.32;33.16;101132.19;4363350;32;33119;-84
2021/10/08 10:12:36;;;;;;;12.82;5.40;;;;;;;19.31;33.16;101133.94;4377900;32;33743;-83
2021/10/08 10:15:05;;;;;;;12.27;5.00;;;;;;;19.53;32.54;101131.19;4351259;32;33665;-85
2021/10/08 10:17:35;;;;;;;14.77;5.60;;;;;;;19.54;32.75;101126.75;4351859;32;33246;-83
2021/10/08 10:20:03;;;;;;;10.05;5.10;;;;;;;19.42;32.58;101129.97;4363617;32;34898;-82
2021/10/08 10:22:31;;;;;;;11.15;4.55;;;;;;;19.67;32.34;101130.53;4351343;32;34521;-85
2021/10/08 10:24:58;;;;;;;18.30;5.60;;;;;;;19.79;31.94;101130.88;4350490;32;32461;-83
2021/10/08 10:27:26;;;;;;;14.82;5.35;;;;;;;19.90;31.64;101133.03;4363322;32;33172;-84
2021/10/08 10:29:55;;;;;;;16.55;5.30;;;;;;;20.11;31.12;101139.94;4349820;32;34375;-84
2021/10/08 10:32:23;;;;;;;11.85;5.15;;;;;;;19.99;31.43;101128.16;4363550;32;32885;-84
2021/10/08 10:34:51;;;;;;;11.77;5.37;;;;;;;20.10;31.49;101121.50;4351652;32;34057;-84
2021/10/08 10:37:41;;;;;;;12.57;5.53;;;;;;;20.57;30.12;101128.00;4363342;32;34593;-84
2021/10/08 10:40:20;;;;;;;10.00;5.60;;;;;;;20.18;30.89;101140.50;4351841;32;34068;-83
2021/10/08 10:43:13;;;;;;;12.43;5.32;;;;;;;20.74;30.06;101137.75;4363542;32;33531;-84
2021/10/08 10:45:48;;;;;;;14.63;5.40;;;;;;;20.59;30.29;101136.72;4363445;32;32912;-84
2021/10/08 10:48:24;;;;;;;14.40;4.93;;;;;;;20.76;30.11;101134.09;4364041;32;33059;-84
2021/10/08 10:51:14;;;;;;;17.58;6.22;;;;;;;21.07;29.95;101129.84;4363590;32;33242;-84
2021/10/08 10:53:50;;;;;;;16.87;5.93;;;;;;;21.14;29.53;101138.31;4363375;32;32701;-84
2021/10/08 10:56:36;;;;;;;8.90;4.72;;;;;;;20.78;29.63;101145.47;4350951;32;32677;-83
2021/10/08 10:59:22;;;;;;;11.57;4.62;;;;;;;21.23;28.95;101134.34;4376990;32;33734;-84
2021/10/08 11:02:17;;;;;;;14.55;5.78;;;;;;;21.21;28.98;101133.53;4364086;32;33403;-84
2021/10/08 11:04:55;;;;;;;11.52;4.68;;;;;;;21.16;28.88;101131.16;4367760;32;33032;-83
2021/10/08 11:07:23;;;;;;;17.98;5.70;;;;;;;21.47;28.36;101121.53;4363132;32;33740;-82
2021/10/08 11:10:04;;;;;;;10.65;5.12;;;;;;;21.27;29.04;101127.91;4363912;32;32896;-83
2021/10/08 11:12:42;;;;;;;14.38;5.10;;;;;;;21.36;28.47;101119.47;4364063;32;33518;-84
2021/10/08 11:15:21;;;;;;;12.52;4.50;;;;;;;21.29;28.76;101126.91;4351177;32;34306;-84
2021/10/08 11:17:54;;;;;;;16.58;4.85;;;;;;;20.73;28.35;101133.38;4376071;32;32468;-84
2021/10/08 11:20:31;;;;;;;11.80;4.45;;;;;;;21.46;27.91;101122.47;4363649;32;33158;-84
2021/10/08 11:23:07;;;;;;;15.85;4.40;;;;;;;21.45;27.85;101121.63;4350830;32;34577;-84
2021/10/08 11:25:48;;;;;;;12.35;4.80;;;;;;;21.39;27.71;101118.44;4362774;32;33781;-83
2021/10/08 11:28:16;;;;;;;12.93;4.55;;;;;;;21.76;27.16;101119.09;4351024;32;33627;-84
2021/10/08 11:30:48;;;;;;;18.85;4.68;;;;;;;22.02;27.05;101109.69;4362897;32;33452;-84
2021/10/08 11:33:16;;;;;;;10.57;4.35;;;;;;;21.80;27.20;101099.41;4363101;32;34890;-84